sensor_id;sensor_type;location;lat;lon;timestamp;temperature;humidity
60353;DHT22;46196;52.970;6.954;2023-06-14T00:01:47;16.70;61.80
60353;DHT22;46196;52.970;6.954;2023-06-14T00:04:13;16.90;61.90
60353;DHT22;46196;52.970;6.954;2023-06-14T00:06:39;16.90;62.30
60353;DHT22;46196;52.970;6.954;2023-06-14T00:09:05;16.90;62.70
60353;DHT22;46196;52.970;6.954;2023-06-14T00:11:31;16.00;65.50
60353;DHT22;46196;52.970;6.954;2023-06-14T00:13:57;16.80;64.60
60353;DHT22;46196;52.970;6.954;2023-06-14T00:16:23;16.80;65.60
60353;DHT22;46196;52.970;6.954;2023-06-14T00:18:48;16.60;68.30
60353;DHT22;46196;52.970;6.954;2023-06-14T00:21:14;16.70;67.20
60353;DHT22;46196;52.970;6.954;2023-06-14T00:23:40;16.60;67.10
60353;DHT22;46196;52.970;6.954;2023-06-14T00:26:05;16.60;68.10
60353;DHT22;46196;52.970;6.954;2023-06-14T00:28:31;16.60;68.40
60353;DHT22;46196;52.970;6.954;2023-06-14T00:30:57;16.50;69.00
60353;DHT22;46196;52.970;6.954;2023-06-14T00:33:22;16.50;69.90
60353;DHT22;46196;52.970;6.954;2023-06-14T00:35:48;16.40;70.30
60353;DHT22;46196;52.970;6.954;2023-06-14T00:38:14;17.10;74.00
60353;DHT22;46196;52.970;6.954;2023-06-14T00:40:39;16.40;72.50
60353;DHT22;46196;52.970;6.954;2023-06-14T00:43:05;16.60;75.30
60353;DHT22;46196;52.970;6.954;2023-06-14T00:45:31;16.30;75.00
60353;DHT22;46196;52.970;6.954;2023-06-14T00:48:01;16.30;77.80
60353;DHT22;46196;52.970;6.954;2023-06-14T00:50:28;16.20;82.40
60353;DHT22;46196;52.970;6.954;2023-06-14T00:52:56;16.40;81.80
60353;DHT22;46196;52.970;6.954;2023-06-14T00:55:23;16.10;81.50
60353;DHT22;46196;52.970;6.954;2023-06-14T00:57:48;16.10;83.20
60353;DHT22;46196;52.970;6.954;2023-06-14T01:00:15;15.40;87.50
60353;DHT22;46196;52.970;6.954;2023-06-14T01:02:40;16.00;87.20
60353;DHT22;46196;52.970;6.954;2023-06-14T01:05:06;16.00;88.70
60353;DHT22;46196;52.970;6.954;2023-06-14T01:13:12;15.90;91.80
60353;DHT22;46196;52.970;6.954;2023-06-14T01:15:39;15.90;93.30
60353;DHT22;46196;52.970;6.954;2023-06-14T01:18:06;16.20;93.60
60353;DHT22;46196;52.970;6.954;2023-06-14T01:20:33;13.80;93.80
60353;DHT22;46196;52.970;6.954;2023-06-14T01:23:01;15.80;93.80
60353;DHT22;46196;52.970;6.954;2023-06-14T01:25:27;15.80;94.80
60353;DHT22;46196;52.970;6.954;2023-06-14T01:27:57;15.70;94.30
60353;DHT22;46196;52.970;6.954;2023-06-14T01:30:24;15.60;95.50
60353;DHT22;46196;52.970;6.954;2023-06-14T01:32:52;15.70;95.70
60353;DHT22;46196;52.970;6.954;2023-06-14T01:35:18;15.60;95.80
60353;DHT22;46196;52.970;6.954;2023-06-14T01:37:49;15.60;96.00
60353;DHT22;46196;52.970;6.954;2023-06-14T01:40:16;15.60;96.60
60353;DHT22;46196;52.970;6.954;2023-06-14T01:42:43;15.50;97.00
60353;DHT22;46196;52.970;6.954;2023-06-14T01:45:10;15.40;97.70
60353;DHT22;46196;52.970;6.954;2023-06-14T01:47:36;15.50;97.30
60353;DHT22;46196;52.970;6.954;2023-06-14T01:50:03;15.40;97.80
60353;DHT22;46196;52.970;6.954;2023-06-14T01:52:29;15.40;98.60
60353;DHT22;46196;52.970;6.954;2023-06-14T01:54:55;13.40;98.80
60353;DHT22;46196;52.970;6.954;2023-06-14T01:57:21;15.30;98.90
60353;DHT22;46196;52.970;6.954;2023-06-14T01:59:47;15.20;99.40
60353;DHT22;46196;52.970;6.954;2023-06-14T02:02:14;14.50;99.60
60353;DHT22;46196;52.970;6.954;2023-06-14T02:04:41;15.20;99.90
60353;DHT22;46196;52.970;6.954;2023-06-14T02:07:07;15.20;99.90
60353;DHT22;46196;52.970;6.954;2023-06-14T02:09:34;14.70;99.90
60353;DHT22;46196;52.970;6.954;2023-06-14T02:12:00;15.10;99.90
60353;DHT22;46196;52.970;6.954;2023-06-14T02:14:26;15.10;99.90
60353;DHT22;46196;52.970;6.954;2023-06-14T02:16:52;15.20;99.90
60353;DHT22;46196;52.970;6.954;2023-06-14T02:19:20;15.00;99.90
60353;DHT22;46196;52.970;6.954;2023-06-14T02:21:46;15.00;99.90
60353;DHT22;46196;52.970;6.954;2023-06-14T02:24:12;15.00;99.90
60353;DHT22;46196;52.970;6.954;2023-06-14T02:26:38;15.00;99.90
60353;DHT22;46196;52.970;6.954;2023-06-14T02:29:05;14.90;99.90
60353;DHT22;46196;52.970;6.954;2023-06-14T02:31:38;14.90;99.90
60353;DHT22;46196;52.970;6.954;2023-06-14T02:34:04;14.80;99.90
60353;DHT22;46196;52.970;6.954;2023-06-14T02:36:30;14.80;99.90
60353;DHT22;46196;52.970;6.954;2023-06-14T02:38:56;14.80;99.90
60353;DHT22;46196;52.970;6.954;2023-06-14T02:41:24;16.10;99.90
60353;DHT22;46196;52.970;6.954;2023-06-14T02:43:49;14.70;99.90
60353;DHT22;46196;52.970;6.954;2023-06-14T02:46:15;13.30;99.90
60353;DHT22;46196;52.970;6.954;2023-06-14T02:48:41;14.70;99.90
60353;DHT22;46196;52.970;6.954;2023-06-14T02:51:06;14.60;99.90
60353;DHT22;46196;52.970;6.954;2023-06-14T02:53:34;14.60;99.90
60353;DHT22;46196;52.970;6.954;2023-06-14T02:55:59;14.70;99.90
60353;DHT22;46196;52.970;6.954;2023-06-14T02:58:26;14.50;99.90
60353;DHT22;46196;52.970;6.954;2023-06-14T03:00:52;14.50;99.90
60353;DHT22;46196;52.970;6.954;2023-06-14T03:03:20;14.50;99.90
60353;DHT22;46196;52.970;6.954;2023-06-14T03:05:47;14.50;99.90
60353;DHT22;46196;52.970;6.954;2023-06-14T03:08:17;15.00;99.90
60353;DHT22;46196;52.970;6.954;2023-06-14T03:10:48;14.40;99.90
60353;DHT22;46196;52.970;6.954;2023-06-14T03:13:15;14.30;99.90
60353;DHT22;46196;52.970;6.954;2023-06-14T03:15:44;14.40;99.90
60353;DHT22;46196;52.970;6.954;2023-06-14T03:18:10;13.90;99.90
60353;DHT22;46196;52.970;6.954;2023-06-14T03:20:37;14.20;99.90
60353;DHT22;46196;52.970;6.954;2023-06-14T03:23:04;14.30;99.90
60353;DHT22;46196;52.970;6.954;2023-06-14T03:25:31;14.30;99.90
60353;DHT22;46196;52.970;6.954;2023-06-14T03:27:57;14.30;99.90
60353;DHT22;46196;52.970;6.954;2023-06-14T03:30:23;14.20;99.90
60353;DHT22;46196;52.970;6.954;2023-06-14T03:32:48;14.20;99.90
60353;DHT22;46196;52.970;6.954;2023-06-14T03:35:14;14.20;99.90
60353;DHT22;46196;52.970;6.954;2023-06-14T03:37:46;15.30;99.90
60353;DHT22;46196;52.970;6.954;2023-06-14T03:40:15;14.10;99.90
60353;DHT22;46196;52.970;6.954;2023-06-14T03:42:40;14.20;99.90
60353;DHT22;46196;52.970;6.954;2023-06-14T03:45:07;14.10;99.90
60353;DHT22;46196;52.970;6.954;2023-06-14T03:47:33;14.10;99.90
60353;DHT22;46196;52.970;6.954;2023-06-14T03:49:59;13.90;99.90
60353;DHT22;46196;52.970;6.954;2023-06-14T03:52:26;14.10;99.90
60353;DHT22;46196;52.970;6.954;2023-06-14T03:54:52;14.10;99.90
60353;DHT22;46196;52.970;6.954;2023-06-14T03:57:18;14.10;99.90
60353;DHT22;46196;52.970;6.954;2023-06-14T03:59:45;15.00;99.90
60353;DHT22;46196;52.970;6.954;2023-06-14T04:02:11;14.10;99.90
60353;DHT22;46196;52.970;6.954;2023-06-14T04:04:37;14.00;99.90
60353;DHT22;46196;52.970;6.954;2023-06-14T04:07:03;14.10;99.90
60353;DHT22;46196;52.970;6.954;2023-06-14T04:09:32;14.10;99.90
60353;DHT22;46196;52.970;6.954;2023-06-14T04:11:57;14.20;99.90
60353;DHT22;46196;52.970;6.954;2023-06-14T04:14:23;14.10;99.90
60353;DHT22;46196;52.970;6.954;2023-06-14T04:16:49;13.40;99.90
60353;DHT22;46196;52.970;6.954;2023-06-14T04:19:15;14.20;99.90
60353;DHT22;46196;52.970;6.954;2023-06-14T04:21:41;14.20;99.90
60353;DHT22;46196;52.970;6.954;2023-06-14T04:24:07;14.30;99.90
60353;DHT22;46196;52.970;6.954;2023-06-14T04:26:38;14.30;99.90
60353;DHT22;46196;52.970;6.954;2023-06-14T04:29:05;14.30;99.90
60353;DHT22;46196;52.970;6.954;2023-06-14T04:31:31;14.40;99.90
60353;DHT22;46196;52.970;6.954;2023-06-14T04:33:59;14.40;99.90
60353;DHT22;46196;52.970;6.954;2023-06-14T04:36:25;14.40;99.90
60353;DHT22;46196;52.970;6.954;2023-06-14T04:38:53;14.40;99.90
60353;DHT22;46196;52.970;6.954;2023-06-14T04:41:21;14.50;99.90
60353;DHT22;46196;52.970;6.954;2023-06-14T04:43:49;14.50;99.90
60353;DHT22;46196;52.970;6.954;2023-06-14T04:46:15;14.60;99.90
60353;DHT22;46196;52.970;6.954;2023-06-14T04:48:41;14.50;99.90
60353;DHT22;46196;52.970;6.954;2023-06-14T04:51:11;14.60;99.90
60353;DHT22;46196;52.970;6.954;2023-06-14T04:53:36;13.30;99.90
60353;DHT22;46196;52.970;6.954;2023-06-14T04:56:03;14.60;99.90
60353;DHT22;46196;52.970;6.954;2023-06-14T04:58:29;14.70;99.90
60353;DHT22;46196;52.970;6.954;2023-06-14T05:00:55;14.80;99.90
60353;DHT22;46196;52.970;6.954;2023-06-14T05:03:24;14.80;99.90
60353;DHT22;46196;52.970;6.954;2023-06-14T05:05:50;14.90;99.90
60353;DHT22;46196;52.970;6.954;2023-06-14T05:08:18;14.90;99.90
60353;DHT22;46196;52.970;6.954;2023-06-14T05:10:44;15.00;99.90
60353;DHT22;46196;52.970;6.954;2023-06-14T05:13:12;15.00;99.90
60353;DHT22;46196;52.970;6.954;2023-06-14T05:15:38;14.30;99.90
60353;DHT22;46196;52.970;6.954;2023-06-14T05:18:04;14.80;99.90
60353;DHT22;46196;52.970;6.954;2023-06-14T05:20:29;15.10;99.90
60353;DHT22;46196;52.970;6.954;2023-06-14T05:22:55;15.30;99.90
60353;DHT22;46196;52.970;6.954;2023-06-14T05:25:22;15.30;99.90
60353;DHT22;46196;52.970;6.954;2023-06-14T05:27:48;15.40;99.90
60353;DHT22;46196;52.970;6.954;2023-06-14T05:30:15;15.10;99.90
60353;DHT22;46196;52.970;6.954;2023-06-14T05:32:41;15.10;99.90
60353;DHT22;46196;52.970;6.954;2023-06-14T05:35:07;15.60;99.90
60353;DHT22;46196;52.970;6.954;2023-06-14T05:37:33;15.70;99.90
60353;DHT22;46196;52.970;6.954;2023-06-14T05:39:59;15.80;99.90
60353;DHT22;46196;52.970;6.954;2023-06-14T05:42:24;15.80;99.90
60353;DHT22;46196;52.970;6.954;2023-06-14T05:44:50;15.80;99.90
60353;DHT22;46196;52.970;6.954;2023-06-14T05:47:16;15.90;99.90
60353;DHT22;46196;52.970;6.954;2023-06-14T05:49:41;15.90;99.90
60353;DHT22;46196;52.970;6.954;2023-06-14T05:52:07;16.00;99.90
60353;DHT22;46196;52.970;6.954;2023-06-14T05:54:33;16.10;99.90
60353;DHT22;46196;52.970;6.954;2023-06-14T05:56:59;16.20;99.90
60353;DHT22;46196;52.970;6.954;2023-06-14T05:59:27;16.30;99.90
60353;DHT22;46196;52.970;6.954;2023-06-14T06:01:53;15.40;99.90
60353;DHT22;46196;52.970;6.954;2023-06-14T06:04:18;16.30;99.90
60353;DHT22;46196;52.970;6.954;2023-06-14T06:06:45;16.20;99.90
60353;DHT22;46196;52.970;6.954;2023-06-14T06:09:10;17.20;99.90
60353;DHT22;46196;52.970;6.954;2023-06-14T06:11:36;16.60;99.90
60353;DHT22;46196;52.970;6.954;2023-06-14T06:14:02;16.80;99.90
60353;DHT22;46196;52.970;6.954;2023-06-14T06:16:27;16.70;99.90
60353;DHT22;46196;52.970;6.954;2023-06-14T06:18:53;17.20;99.90
60353;DHT22;46196;52.970;6.954;2023-06-14T06:21:18;16.90;99.90
60353;DHT22;46196;52.970;6.954;2023-06-14T06:23:44;17.60;99.90
60353;DHT22;46196;52.970;6.954;2023-06-14T06:26:10;17.10;99.90
60353;DHT22;46196;52.970;6.954;2023-06-14T06:28:35;17.20;99.90
60353;DHT22;46196;52.970;6.954;2023-06-14T06:31:01;17.30;99.90
60353;DHT22;46196;52.970;6.954;2023-06-14T06:33:26;17.40;99.90
60353;DHT22;46196;52.970;6.954;2023-06-14T06:35:52;17.50;99.90
60353;DHT22;46196;52.970;6.954;2023-06-14T06:38:18;17.60;99.90
60353;DHT22;46196;52.970;6.954;2023-06-14T06:40:44;17.70;99.90
60353;DHT22;46196;52.970;6.954;2023-06-14T06:43:10;17.80;99.90
60353;DHT22;46196;52.970;6.954;2023-06-14T06:45:39;17.60;99.90
60353;DHT22;46196;52.970;6.954;2023-06-14T06:48:05;18.00;99.90
60353;DHT22;46196;52.970;6.954;2023-06-14T06:50:31;18.00;99.90
60353;DHT22;46196;52.970;6.954;2023-06-14T06:52:57;17.60;99.90
60353;DHT22;46196;52.970;6.954;2023-06-14T06:55:22;18.20;99.90
60353;DHT22;46196;52.970;6.954;2023-06-14T06:57:48;18.30;99.90
60353;DHT22;46196;52.970;6.954;2023-06-14T07:00:15;17.80;99.90
60353;DHT22;46196;52.970;6.954;2023-06-14T07:02:41;18.50;99.90
60353;DHT22;46196;52.970;6.954;2023-06-14T07:05:07;18.60;99.90
60353;DHT22;46196;52.970;6.954;2023-06-14T07:07:34;18.70;99.90
60353;DHT22;46196;52.970;6.954;2023-06-14T07:10:00;18.80;99.90
60353;DHT22;46196;52.970;6.954;2023-06-14T07:12:26;18.90;99.90
60353;DHT22;46196;52.970;6.954;2023-06-14T07:14:51;18.50;99.90
60353;DHT22;46196;52.970;6.954;2023-06-14T07:17:17;18.00;99.90
60353;DHT22;46196;52.970;6.954;2023-06-14T07:19:43;19.20;99.90
60353;DHT22;46196;52.970;6.954;2023-06-14T07:22:12;19.40;99.90
60353;DHT22;46196;52.970;6.954;2023-06-14T07:24:37;19.80;99.90
60353;DHT22;46196;52.970;6.954;2023-06-14T07:27:04;20.70;99.90
60353;DHT22;46196;52.970;6.954;2023-06-14T07:29:30;21.60;99.90
60353;DHT22;46196;52.970;6.954;2023-06-14T07:31:55;22.40;97.40
60353;DHT22;46196;52.970;6.954;2023-06-14T07:34:21;23.20;93.60
60353;DHT22;46196;52.970;6.954;2023-06-14T07:36:47;23.70;90.90
60353;DHT22;46196;52.970;6.954;2023-06-14T07:39:13;24.30;90.90
60353;DHT22;46196;52.970;6.954;2023-06-14T07:41:39;24.80;84.30
60353;DHT22;46196;52.970;6.954;2023-06-14T07:44:04;25.20;78.60
60353;DHT22;46196;52.970;6.954;2023-06-14T07:46:30;25.50;73.30
60353;DHT22;46196;52.970;6.954;2023-06-14T07:48:56;25.80;72.70
60353;DHT22;46196;52.970;6.954;2023-06-14T07:51:22;26.10;71.20
60353;DHT22;46196;52.970;6.954;2023-06-14T07:53:49;26.40;68.50
60353;DHT22;46196;52.970;6.954;2023-06-14T07:56:15;26.70;67.40
60353;DHT22;46196;52.970;6.954;2023-06-14T07:58:40;27.00;65.50
60353;DHT22;46196;52.970;6.954;2023-06-14T08:01:06;27.30;64.40
60353;DHT22;46196;52.970;6.954;2023-06-14T08:03:33;27.70;63.40
60353;DHT22;46196;52.970;6.954;2023-06-14T08:06:00;28.00;60.00
60353;DHT22;46196;52.970;6.954;2023-06-14T08:08:26;28.20;60.60
60353;DHT22;46196;52.970;6.954;2023-06-14T08:10:52;28.40;59.20
60353;DHT22;46196;52.970;6.954;2023-06-14T08:13:17;28.60;56.90
60353;DHT22;46196;52.970;6.954;2023-06-14T08:15:45;28.60;56.40
60353;DHT22;46196;52.970;6.954;2023-06-14T08:18:10;28.70;54.70
60353;DHT22;46196;52.970;6.954;2023-06-14T08:20:36;28.80;55.10
60353;DHT22;46196;52.970;6.954;2023-06-14T08:23:03;28.80;52.60
60353;DHT22;46196;52.970;6.954;2023-06-14T08:25:29;28.40;52.50
60353;DHT22;46196;52.970;6.954;2023-06-14T08:27:55;28.60;52.80
60353;DHT22;46196;52.970;6.954;2023-06-14T08:30:21;28.60;51.80
60353;DHT22;46196;52.970;6.954;2023-06-14T08:32:47;28.60;51.70
60353;DHT22;46196;52.970;6.954;2023-06-14T08:35:13;28.60;51.80
60353;DHT22;46196;52.970;6.954;2023-06-14T08:37:40;28.70;51.90
60353;DHT22;46196;52.970;6.954;2023-06-14T08:42:38;29.00;49.50
60353;DHT22;46196;52.970;6.954;2023-06-14T08:45:05;29.00;49.80
60353;DHT22;46196;52.970;6.954;2023-06-14T08:47:32;29.00;50.20
60353;DHT22;46196;52.970;6.954;2023-06-14T08:50:03;29.10;50.40
60353;DHT22;46196;52.970;6.954;2023-06-14T08:52:32;29.00;49.80
60353;DHT22;46196;52.970;6.954;2023-06-14T08:54:59;28.90;49.50
60353;DHT22;46196;52.970;6.954;2023-06-14T08:57:26;28.80;49.10
60353;DHT22;46196;52.970;6.954;2023-06-14T08:59:56;28.70;49.10
60353;DHT22;46196;52.970;6.954;2023-06-14T09:02:22;28.60;49.70
60353;DHT22;46196;52.970;6.954;2023-06-14T09:04:48;28.50;49.40
60353;DHT22;46196;52.970;6.954;2023-06-14T09:07:15;28.60;50.00
60353;DHT22;46196;52.970;6.954;2023-06-14T09:09:41;28.70;49.70
60353;DHT22;46196;52.970;6.954;2023-06-14T09:12:10;28.80;48.90
60353;DHT22;46196;52.970;6.954;2023-06-14T09:14:38;28.90;48.90
60353;DHT22;46196;52.970;6.954;2023-06-14T09:17:05;29.10;49.00
60353;DHT22;46196;52.970;6.954;2023-06-14T09:19:31;29.30;47.10
60353;DHT22;46196;52.970;6.954;2023-06-14T09:21:57;29.40;46.90
60353;DHT22;46196;52.970;6.954;2023-06-14T09:24:24;29.30;45.60
60353;DHT22;46196;52.970;6.954;2023-06-14T09:26:51;29.30;46.50
60353;DHT22;46196;52.970;6.954;2023-06-14T09:29:18;29.30;45.70
60353;DHT22;46196;52.970;6.954;2023-06-14T09:31:46;29.10;46.40
60353;DHT22;46196;52.970;6.954;2023-06-14T09:34:12;28.90;46.30
60353;DHT22;46196;52.970;6.954;2023-06-14T09:36:39;28.90;46.40
60353;DHT22;46196;52.970;6.954;2023-06-14T09:39:05;28.70;46.50
60353;DHT22;46196;52.970;6.954;2023-06-14T09:41:40;28.70;47.10
60353;DHT22;46196;52.970;6.954;2023-06-14T09:44:08;28.90;47.10
60353;DHT22;46196;52.970;6.954;2023-06-14T09:46:35;28.90;47.30
60353;DHT22;46196;52.970;6.954;2023-06-14T09:49:02;29.00;46.30
60353;DHT22;46196;52.970;6.954;2023-06-14T09:51:29;29.00;44.80
60353;DHT22;46196;52.970;6.954;2023-06-14T09:54:02;28.90;44.40
60353;DHT22;46196;52.970;6.954;2023-06-14T09:56:36;28.70;44.20
60353;DHT22;46196;52.970;6.954;2023-06-14T09:59:05;28.70;43.90
60353;DHT22;46196;52.970;6.954;2023-06-14T10:01:35;28.50;44.30
60353;DHT22;46196;52.970;6.954;2023-06-14T10:04:04;28.50;44.20
60353;DHT22;46196;52.970;6.954;2023-06-14T10:06:31;28.40;43.90
60353;DHT22;46196;52.970;6.954;2023-06-14T10:08:58;28.50;44.20
60353;DHT22;46196;52.970;6.954;2023-06-14T10:11:27;28.90;43.90
60353;DHT22;46196;52.970;6.954;2023-06-14T10:13:56;28.20;44.10
60353;DHT22;46196;52.970;6.954;2023-06-14T10:16:36;28.10;44.40
60353;DHT22;46196;52.970;6.954;2023-06-14T10:19:34;28.00;44.50
60353;DHT22;46196;52.970;6.954;2023-06-14T10:22:23;28.00;43.70
60353;DHT22;46196;52.970;6.954;2023-06-14T10:24:51;27.80;45.00
60353;DHT22;46196;52.970;6.954;2023-06-14T10:27:17;27.80;45.20
60353;DHT22;46196;52.970;6.954;2023-06-14T10:32:18;27.80;44.70
60353;DHT22;46196;52.970;6.954;2023-06-14T10:34:44;29.00;45.10
60353;DHT22;46196;52.970;6.954;2023-06-14T10:37:14;27.40;44.20
60353;DHT22;46196;52.970;6.954;2023-06-14T10:39:44;27.60;44.50
60353;DHT22;46196;52.970;6.954;2023-06-14T10:42:12;27.50;44.70
60353;DHT22;46196;52.970;6.954;2023-06-14T10:44:54;27.50;45.40
60353;DHT22;46196;52.970;6.954;2023-06-14T10:47:29;27.60;44.80
60353;DHT22;46196;52.970;6.954;2023-06-14T10:52:34;27.70;44.40
60353;DHT22;46196;52.970;6.954;2023-06-14T10:57:35;27.60;44.30
60353;DHT22;46196;52.970;6.954;2023-06-14T11:00:03;27.60;44.40
60353;DHT22;46196;52.970;6.954;2023-06-14T11:11:10;28.00;44.80
60353;DHT22;46196;52.970;6.954;2023-06-14T11:13:44;28.10;44.90
60353;DHT22;46196;52.970;6.954;2023-06-14T11:16:17;28.00;45.80
60353;DHT22;46196;52.970;6.954;2023-06-14T11:18:44;28.30;46.30
60353;DHT22;46196;52.970;6.954;2023-06-14T11:21:11;28.10;46.20
60353;DHT22;46196;52.970;6.954;2023-06-14T11:23:36;28.20;46.00
60353;DHT22;46196;52.970;6.954;2023-06-14T11:26:03;28.10;45.60
60353;DHT22;46196;52.970;6.954;2023-06-14T11:28:40;28.00;45.30
60353;DHT22;46196;52.970;6.954;2023-06-14T11:31:06;28.00;45.30
60353;DHT22;46196;52.970;6.954;2023-06-14T11:33:32;27.90;45.00
60353;DHT22;46196;52.970;6.954;2023-06-14T11:35:57;27.80;44.70
60353;DHT22;46196;52.970;6.954;2023-06-14T11:38:24;27.80;45.00
60353;DHT22;46196;52.970;6.954;2023-06-14T11:40:50;27.60;44.50
60353;DHT22;46196;52.970;6.954;2023-06-14T11:43:16;28.20;45.20
60353;DHT22;46196;52.970;6.954;2023-06-14T11:45:42;27.70;45.00
60353;DHT22;46196;52.970;6.954;2023-06-14T11:48:08;27.70;45.30
60353;DHT22;46196;52.970;6.954;2023-06-14T11:50:37;27.80;45.70
60353;DHT22;46196;52.970;6.954;2023-06-14T11:53:04;27.90;46.30
60353;DHT22;46196;52.970;6.954;2023-06-14T11:55:35;28.00;45.50
60353;DHT22;46196;52.970;6.954;2023-06-14T11:58:01;28.00;45.30
60353;DHT22;46196;52.970;6.954;2023-06-14T12:00:26;28.10;45.60
60353;DHT22;46196;52.970;6.954;2023-06-14T12:02:56;28.30;44.00
60353;DHT22;46196;52.970;6.954;2023-06-14T12:05:22;28.40;44.20
60353;DHT22;46196;52.970;6.954;2023-06-14T12:07:49;28.50;44.50
60353;DHT22;46196;52.970;6.954;2023-06-14T12:10:16;28.70;44.70
60353;DHT22;46196;52.970;6.954;2023-06-14T12:12:42;28.80;43.80
60353;DHT22;46196;52.970;6.954;2023-06-14T12:15:09;28.90;44.30
60353;DHT22;46196;52.970;6.954;2023-06-14T12:17:37;28.90;43.80
60353;DHT22;46196;52.970;6.954;2023-06-14T12:20:11;29.00;44.00
60353;DHT22;46196;52.970;6.954;2023-06-14T12:22:54;29.00;44.00
60353;DHT22;46196;52.970;6.954;2023-06-14T12:25:34;29.20;44.60
60353;DHT22;46196;52.970;6.954;2023-06-14T12:28:10;29.30;43.60
60353;DHT22;46196;52.970;6.954;2023-06-14T12:30:37;29.10;43.30
60353;DHT22;46196;52.970;6.954;2023-06-14T12:33:04;29.10;43.50
60353;DHT22;46196;52.970;6.954;2023-06-14T12:35:30;29.20;43.70
60353;DHT22;46196;52.970;6.954;2023-06-14T12:37:56;29.40;43.40
60353;DHT22;46196;52.970;6.954;2023-06-14T12:40:22;29.50;43.20
60353;DHT22;46196;52.970;6.954;2023-06-14T12:42:48;29.40;43.00
60353;DHT22;46196;52.970;6.954;2023-06-14T12:45:14;29.40;43.40
60353;DHT22;46196;52.970;6.954;2023-06-14T12:47:40;29.40;43.20
60353;DHT22;46196;52.970;6.954;2023-06-14T12:50:06;29.40;43.40
60353;DHT22;46196;52.970;6.954;2023-06-14T12:52:32;29.40;42.80
60353;DHT22;46196;52.970;6.954;2023-06-14T12:55:04;29.20;42.40
60353;DHT22;46196;52.970;6.954;2023-06-14T12:57:30;28.50;43.10
60353;DHT22;46196;52.970;6.954;2023-06-14T12:59:55;28.70;43.60
60353;DHT22;46196;52.970;6.954;2023-06-14T13:02:21;28.70;44.10
60353;DHT22;46196;52.970;6.954;2023-06-14T13:04:52;28.60;44.10
60353;DHT22;46196;52.970;6.954;2023-06-14T13:07:18;28.80;44.10
60353;DHT22;46196;52.970;6.954;2023-06-14T13:09:44;29.00;44.00
60353;DHT22;46196;52.970;6.954;2023-06-14T13:12:12;29.30;43.80
60353;DHT22;46196;52.970;6.954;2023-06-14T13:14:39;29.40;43.60
60353;DHT22;46196;52.970;6.954;2023-06-14T13:17:07;29.60;43.20
60353;DHT22;46196;52.970;6.954;2023-06-14T13:19:33;29.70;43.00
60353;DHT22;46196;52.970;6.954;2023-06-14T13:21:58;29.80;42.50
60353;DHT22;46196;52.970;6.954;2023-06-14T13:24:24;29.80;42.50
60353;DHT22;46196;52.970;6.954;2023-06-14T13:26:50;29.80;42.50
60353;DHT22;46196;52.970;6.954;2023-06-14T13:29:16;29.70;42.50
60353;DHT22;46196;52.970;6.954;2023-06-14T13:31:41;29.50;42.60
60353;DHT22;46196;52.970;6.954;2023-06-14T13:34:07;29.50;42.70
60353;DHT22;46196;52.970;6.954;2023-06-14T13:36:34;30.00;42.50
60353;DHT22;46196;52.970;6.954;2023-06-14T13:39:00;29.80;42.80
60353;DHT22;46196;52.970;6.954;2023-06-14T13:41:27;30.00;41.90
60353;DHT22;46196;52.970;6.954;2023-06-14T13:43:59;30.20;42.40
60353;DHT22;46196;52.970;6.954;2023-06-14T13:46:25;30.20;42.50
60353;DHT22;46196;52.970;6.954;2023-06-14T13:48:51;30.10;42.10
60353;DHT22;46196;52.970;6.954;2023-06-14T13:51:17;30.00;42.10
60353;DHT22;46196;52.970;6.954;2023-06-14T13:53:47;30.10;42.80
60353;DHT22;46196;52.970;6.954;2023-06-14T13:56:14;30.10;42.60
60353;DHT22;46196;52.970;6.954;2023-06-14T13:58:40;30.00;42.10
60353;DHT22;46196;52.970;6.954;2023-06-14T14:01:05;29.90;42.00
60353;DHT22;46196;52.970;6.954;2023-06-14T14:03:31;29.80;42.20
60353;DHT22;46196;52.970;6.954;2023-06-14T14:05:57;29.90;42.30
60353;DHT22;46196;52.970;6.954;2023-06-14T14:08:23;30.20;42.40
60353;DHT22;46196;52.970;6.954;2023-06-14T14:10:48;29.70;41.90
60353;DHT22;46196;52.970;6.954;2023-06-14T14:13:14;29.70;42.60
60353;DHT22;46196;52.970;6.954;2023-06-14T14:15:40;29.50;43.10
60353;DHT22;46196;52.970;6.954;2023-06-14T14:18:05;29.70;42.90
60353;DHT22;46196;52.970;6.954;2023-06-14T14:20:31;29.80;43.00
60353;DHT22;46196;52.970;6.954;2023-06-14T14:22:57;30.10;42.40
60353;DHT22;46196;52.970;6.954;2023-06-14T14:25:22;30.20;42.20
60353;DHT22;46196;52.970;6.954;2023-06-14T14:27:48;30.10;41.20
60353;DHT22;46196;52.970;6.954;2023-06-14T14:30:14;30.20;41.70
60353;DHT22;46196;52.970;6.954;2023-06-14T14:32:42;30.40;41.80
60353;DHT22;46196;52.970;6.954;2023-06-14T14:35:08;30.50;41.70
60353;DHT22;46196;52.970;6.954;2023-06-14T14:37:34;30.60;41.60
60353;DHT22;46196;52.970;6.954;2023-06-14T14:40:00;30.50;40.80
60353;DHT22;46196;52.970;6.954;2023-06-14T14:42:25;30.40;41.10
60353;DHT22;46196;52.970;6.954;2023-06-14T14:44:52;30.40;40.80
60353;DHT22;46196;52.970;6.954;2023-06-14T14:47:18;30.00;39.90
60353;DHT22;46196;52.970;6.954;2023-06-14T14:49:43;30.30;40.70
60353;DHT22;46196;52.970;6.954;2023-06-14T14:52:09;30.30;40.40
60353;DHT22;46196;52.970;6.954;2023-06-14T14:54:34;30.40;40.60
60353;DHT22;46196;52.970;6.954;2023-06-14T14:57:01;30.40;40.60
60353;DHT22;46196;52.970;6.954;2023-06-14T14:59:27;30.40;40.70
60353;DHT22;46196;52.970;6.954;2023-06-14T15:01:52;30.60;40.80
60353;DHT22;46196;52.970;6.954;2023-06-14T15:04:18;30.70;40.70
60353;DHT22;46196;52.970;6.954;2023-06-14T15:06:44;30.80;40.40
60353;DHT22;46196;52.970;6.954;2023-06-14T15:09:09;30.60;40.20
60353;DHT22;46196;52.970;6.954;2023-06-14T15:11:35;30.30;40.40
60353;DHT22;46196;52.970;6.954;2023-06-14T15:14:01;29.80;40.60
60353;DHT22;46196;52.970;6.954;2023-06-14T15:16:26;28.00;41.10
60353;DHT22;46196;52.970;6.954;2023-06-14T15:18:52;29.10;42.00
60353;DHT22;46196;52.970;6.954;2023-06-14T15:21:18;29.00;42.00
60353;DHT22;46196;52.970;6.954;2023-06-14T15:23:46;30.10;42.10
60353;DHT22;46196;52.970;6.954;2023-06-14T15:26:11;29.30;41.40
60353;DHT22;46196;52.970;6.954;2023-06-14T15:28:37;29.30;41.40
60353;DHT22;46196;52.970;6.954;2023-06-14T15:31:02;29.50;41.70
60353;DHT22;46196;52.970;6.954;2023-06-14T15:33:28;29.60;40.60
60353;DHT22;46196;52.970;6.954;2023-06-14T15:35:54;29.50;41.00
60353;DHT22;46196;52.970;6.954;2023-06-14T15:38:22;29.40;41.40
60353;DHT22;46196;52.970;6.954;2023-06-14T15:40:48;29.10;41.50
60353;DHT22;46196;52.970;6.954;2023-06-14T15:43:14;28.80;41.30
60353;DHT22;46196;52.970;6.954;2023-06-14T15:45:39;28.60;41.70
60353;DHT22;46196;52.970;6.954;2023-06-14T15:48:05;28.30;42.40
60353;DHT22;46196;52.970;6.954;2023-06-14T15:50:31;28.20;42.70
60353;DHT22;46196;52.970;6.954;2023-06-14T15:52:57;28.40;43.00